createdAt,value
2019-01-14T00:07:03.320Z,66.2
2019-01-14T00:12:11.832Z,65.8
2019-01-14T00:17:20.414Z,65.5
2019-01-14T00:37:54.841Z,67.3
2019-01-14T00:53:20.518Z,67.1
2019-01-14T00:58:29.054Z,67.2
2019-01-14T01:03:37.754Z,67
2019-01-14T01:08:46.306Z,66.8
2019-01-14T01:13:54.918Z,66.7
2019-01-14T01:24:12.038Z,67.4
2019-01-14T01:29:20.654Z,67.6
2019-01-14T01:34:29.394Z,66.8
2019-01-14T01:44:46.963Z,67.3
2019-01-14T01:49:55.135Z,67.3
2019-01-14T01:55:03.839Z,66.8
2019-01-14T02:00:12.387Z,67.4
2019-01-14T02:05:21.043Z,67.2
2019-01-14T02:10:29.646Z,67.7
2019-01-14T02:15:38.217Z,67.3
2019-01-14T02:20:46.802Z,67.4
2019-01-14T02:25:55.308Z,67
2019-01-14T02:31:03.994Z,66.7
2019-01-14T02:36:12.532Z,66.9
2019-01-14T02:41:21.227Z,66.7
2019-01-14T02:51:38.420Z,67.4
2019-01-14T02:56:47.157Z,67
2019-01-14T03:07:04.389Z,67.4
2019-01-14T03:12:12.914Z,66.6
2019-01-14T03:17:21.539Z,66.3
2019-01-14T03:22:30.299Z,65.7
2019-01-14T03:27:38.899Z,65.5
2019-01-14T03:32:47.519Z,66.2
2019-01-14T03:37:56.115Z,66.7
2019-01-14T03:43:04.646Z,67
2019-01-14T03:48:13.453Z,67.4
2019-01-14T03:53:21.910Z,67.5
2019-01-14T03:58:30.490Z,67.3
2019-01-14T04:03:39.413Z,66.8
2019-01-14T04:08:47.799Z,66.3
2019-01-14T04:13:56.315Z,65.9
2019-01-14T04:24:13.614Z,66.1
2019-01-14T04:34:30.782Z,66.2
2019-01-14T04:39:39.367Z,65.9
2019-01-14T04:49:56.470Z,66
2019-01-14T04:55:13.884Z,65.8
2019-01-14T05:00:13.616Z,65.2
2019-01-14T05:05:22.170Z,65.2
2019-01-14T05:10:30.724Z,64.7
2019-01-14T05:15:39.399Z,64.7
2019-01-14T05:20:47.833Z,64.3
2019-01-14T05:25:56.376Z,64.5
2019-01-14T05:31:05.011Z,64.5
2019-01-14T05:36:13.507Z,64.1
2019-01-14T05:41:21.999Z,64.2
2019-01-14T05:46:30.612Z,64.1
2019-01-14T05:56:47.690Z,63.6
2019-01-14T06:01:56.275Z,63.8
2019-01-14T06:07:04.699Z,63.7
2019-01-14T06:17:21.795Z,62.4
2019-01-14T06:22:30.262Z,62.6
2019-01-14T06:32:47.390Z,61.6
2019-01-14T06:43:04.421Z,62.1
2019-01-14T06:53:21.490Z,62.5
2019-01-14T06:58:29.976Z,61.7
2019-01-14T07:03:38.438Z,60.5
2019-01-14T07:08:46.937Z,60
2019-01-14T07:13:55.343Z,60.6
2019-01-14T07:19:03.941Z,60.2
2019-01-14T07:24:12.438Z,60.4
2019-01-14T07:29:20.845Z,60.8
2019-01-14T07:34:29.416Z,60.6
2019-01-14T07:39:37.812Z,58.4
2019-01-14T07:44:46.442Z,58.8
2019-01-14T07:55:03.256Z,57.7
2019-01-14T08:15:37.282Z,56
2019-01-14T08:20:45.802Z,56.4
2019-01-14T08:25:54.295Z,55.4
2019-01-14T08:31:02.816Z,55.3
2019-01-14T08:36:11.315Z,55.1
2019-01-14T08:41:19.802Z,55.2
2019-01-14T08:51:36.792Z,54.3
2019-01-14T09:01:53.744Z,53.9
2019-01-14T09:07:02.390Z,53.3
2019-01-14T09:12:10.756Z,53.2
2019-01-14T09:17:19.144Z,52.5
2019-01-14T09:22:27.607Z,52.7
2019-01-14T09:27:36.159Z,49.8
2019-01-14T09:32:44.584Z,48.2
2019-01-14T09:43:01.347Z,44.5
2019-01-14T09:48:09.623Z,44.2
2019-01-14T09:58:26.169Z,42
2019-01-14T10:03:34.502Z,40.1
2019-01-14T10:18:58.923Z,38.2
2019-01-14T10:24:07.105Z,37.9
2019-01-14T10:34:23.055Z,36.4
2019-01-14T10:44:39.120Z,33.8
2019-01-14T10:49:46.827Z,33.6
2019-01-14T10:54:54.695Z,33.3
2019-01-14T11:05:10.412Z,31.9
2019-01-14T11:10:18.457Z,33.6
2019-01-14T11:15:26.157Z,32.2
2019-01-14T11:20:34.093Z,32
2019-01-14T11:25:42.096Z,32.8
2019-01-14T11:30:50.124Z,33.8
2019-01-14T11:41:06.323Z,34.9
2019-01-14T11:46:14.369Z,36.3
2019-01-14T11:51:22.593Z,38.3
2019-01-14T11:56:30.715Z,39
2019-01-14T12:01:38.897Z,39.8
2019-01-14T12:06:47.087Z,38.7
2019-01-14T12:11:55.291Z,38.1
2019-01-14T12:17:03.407Z,36.6
2019-01-14T12:22:11.471Z,37.4
2019-01-14T12:27:19.495Z,34.4
2019-01-14T12:37:35.662Z,34.8
2019-01-14T12:42:43.782Z,35.5
2019-01-14T12:47:51.868Z,35.5
2019-01-14T12:53:00.079Z,34.2
2019-01-14T12:58:08.052Z,33.8
2019-01-14T13:03:16.198Z,35.3
2019-01-14T13:13:32.441Z,42
2019-01-14T13:23:48.864Z,44.6
2019-01-14T13:28:57.251Z,45.1
2019-01-14T13:34:05.440Z,46.8
2019-01-14T13:39:13.767Z,47.9
2019-01-14T13:54:38.996Z,50.6
2019-01-14T13:59:47.505Z,50.7
2019-01-14T14:04:55.688Z,51.6
2019-01-14T14:10:04.173Z,52.2
2019-01-14T14:20:20.980Z,54.1
2019-01-14T14:25:29.397Z,54
2019-01-14T14:30:37.722Z,54.1
2019-01-14T14:35:46.339Z,53.7
2019-01-14T14:40:54.636Z,52.8
2019-01-14T14:51:11.614Z,52.8
2019-01-14T14:56:20.130Z,53.1
2019-01-14T15:06:37.104Z,51.7
2019-01-14T15:11:45.617Z,50.8
2019-01-14T15:16:54.108Z,52.5
2019-01-14T15:22:02.587Z,52.2
2019-01-14T15:27:11.063Z,51.8
2019-01-14T15:32:19.568Z,50.7
2019-01-14T15:37:28.122Z,51
2019-01-14T15:42:36.609Z,51.7
2019-01-14T15:47:45.319Z,52.7
2019-01-14T15:52:53.651Z,51.7
2019-01-14T15:58:02.208Z,52.4
2019-01-14T16:13:27.953Z,51.6
2019-01-14T16:18:36.615Z,52.1
2019-01-14T16:23:45.224Z,53
2019-01-14T16:28:53.706Z,52.9
2019-01-14T16:49:28.136Z,54
2019-01-14T16:59:45.333Z,54.1
2019-01-14T17:10:02.610Z,54.7
2019-01-14T17:15:11.116Z,55.7
2019-01-14T17:20:19.705Z,54.9
2019-01-14T17:25:28.322Z,54.6
2019-01-14T17:35:45.670Z,54.2
2019-01-14T17:40:54.238Z,55.3
2019-01-14T17:46:02.959Z,55.2
2019-01-14T17:51:11.549Z,55.8
2019-01-14T17:56:20.202Z,55.6
2019-01-14T18:01:28.872Z,55.8
2019-01-14T18:06:37.613Z,54.7
2019-01-14T18:22:03.592Z,56.6
2019-01-14T18:32:20.946Z,55.2
2019-01-14T18:37:29.561Z,56.3
2019-01-14T18:42:38.249Z,56
2019-01-14T18:52:55.762Z,56.5
2019-01-14T18:58:04.322Z,56.4
2019-01-14T19:03:12.994Z,56.6
2019-01-14T19:08:21.663Z,56.4
2019-01-14T19:13:30.422Z,56.3
2019-01-14T19:23:47.687Z,56.5
2019-01-14T19:28:56.344Z,55.3
2019-01-14T19:34:05.068Z,56.2
2019-01-14T19:39:13.720Z,56.7
2019-01-14T19:44:23.391Z,56.4
2019-01-14T19:49:31.076Z,56.5
2019-01-14T19:54:39.752Z,57.2
2019-01-14T19:59:48.459Z,56.8
2019-01-14T20:04:57.249Z,56.9
2019-01-14T20:15:14.596Z,57.4
2019-01-14T20:20:24.125Z,57.4
2019-01-14T20:25:31.985Z,57.2
2019-01-14T20:40:58.088Z,57.7
2019-01-14T20:46:06.777Z,57.4
2019-01-14T20:51:15.554Z,57.3
2019-01-14T20:56:24.256Z,58.2
2019-01-14T21:01:33.006Z,58
2019-01-14T21:06:41.888Z,57.8
2019-01-14T21:11:50.559Z,58.1
2019-01-14T21:16:59.475Z,57.6
2019-01-14T21:22:08.096Z,58.2
2019-01-14T21:32:25.635Z,57.6
2019-01-14T21:37:34.467Z,57.9
2019-01-14T21:42:43.210Z,58
2019-01-14T21:47:51.971Z,58.6
2019-01-14T21:58:09.680Z,58.5
2019-01-14T22:03:18.435Z,58.6
2019-01-14T22:08:27.343Z,59
2019-01-14T22:18:44.857Z,59
2019-01-14T22:23:53.813Z,59.5
2019-01-14T22:29:02.607Z,59.5
2019-01-14T22:34:11.405Z,59.6
2019-01-14T22:39:20.252Z,60
2019-01-14T22:44:29.077Z,60.1
2019-01-14T22:49:37.867Z,60
2019-01-14T22:54:46.667Z,60
2019-01-14T23:05:04.366Z,59.3
2019-01-14T23:10:13.193Z,59.8
2019-01-14T23:15:22.018Z,59.5
2019-01-14T23:20:30.854Z,59.5
2019-01-14T23:30:48.563Z,59.2
2019-01-14T23:41:06.346Z,59.1
2019-01-14T23:46:15.291Z,59.1
